createdAt,value
2018-06-12T00:00:06.815Z,83.70
2018-06-12T00:01:06.737Z,83.70
2018-06-12T00:02:05.740Z,83.60
2018-06-12T00:03:06.155Z,83.60
2018-06-12T00:04:06.233Z,83.60
2018-06-12T00:05:06.149Z,83.80
2018-06-12T00:06:06.352Z,83.80
2018-06-12T00:07:08.569Z,83.80
2018-06-12T00:08:06.544Z,83.80
2018-06-12T00:09:05.642Z,83.80
2018-06-12T00:10:10.840Z,84.00
2018-06-12T00:11:12.480Z,83.80
2018-06-12T00:12:06.232Z,83.80
2018-06-12T00:13:06.066Z,83.80
2018-06-12T00:14:08.526Z,83.90
2018-06-12T00:15:05.800Z,83.90
2018-06-12T00:16:05.625Z,83.80
2018-06-12T00:17:06.024Z,83.60
2018-06-12T00:18:11.494Z,83.70
2018-06-12T00:19:11.064Z,83.80
2018-06-12T00:20:09.545Z,83.80
2018-06-12T00:21:06.208Z,83.80
2018-06-12T00:22:06.012Z,83.70
2018-06-12T00:23:11.326Z,83.80
2018-06-12T00:24:13.563Z,83.80
2018-06-12T00:25:08.503Z,83.80
2018-06-12T00:26:06.438Z,83.80
2018-06-12T00:27:06.128Z,83.90
2018-06-12T00:28:06.178Z,83.80
2018-06-12T00:29:05.964Z,83.80
2018-06-12T00:30:05.973Z,83.80
2018-06-12T00:31:06.206Z,83.80
2018-06-12T00:32:05.951Z,83.80
2018-06-12T00:33:06.198Z,83.80
2018-06-12T00:34:06.140Z,83.80
2018-06-12T00:35:09.166Z,83.80
2018-06-12T00:36:09.015Z,83.80
2018-06-12T00:37:05.949Z,83.80
2018-06-12T00:38:08.617Z,84.00
2018-06-12T00:39:06.205Z,84.00
2018-06-12T00:40:06.009Z,84.10
2018-06-12T00:41:08.189Z,83.90
2018-06-12T00:42:05.723Z,83.90
2018-06-12T00:43:10.642Z,83.90
2018-06-12T00:44:06.232Z,83.90
2018-06-12T00:45:06.401Z,83.80
2018-06-12T00:46:06.175Z,83.90
2018-06-12T00:47:05.925Z,83.80
2018-06-12T00:48:05.828Z,83.80
2018-06-12T00:49:08.803Z,83.90
2018-06-12T00:50:09.126Z,83.80
2018-06-12T00:51:05.540Z,83.80
2018-06-12T00:52:06.517Z,83.80
2018-06-12T00:53:11.135Z,83.80
2018-06-12T00:54:10.702Z,83.80
2018-06-12T00:55:06.240Z,83.90
2018-06-12T00:56:10.913Z,83.90
2018-06-12T00:57:08.599Z,84.10
2018-06-12T00:58:11.073Z,84.40
2018-06-12T00:59:13.501Z,84.30
2018-06-12T01:00:06.361Z,84.30
2018-06-12T01:01:06.268Z,84.40
2018-06-12T01:02:09.368Z,84.30
2018-06-12T01:03:06.105Z,84.30
2018-06-12T01:04:08.318Z,84.30
2018-06-12T01:05:06.005Z,84.30
2018-06-12T01:06:06.165Z,84.40
2018-06-12T01:07:08.994Z,84.50
2018-06-12T01:08:05.939Z,84.50
2018-06-12T01:09:05.458Z,84.40
2018-06-12T01:10:06.366Z,84.30
2018-06-12T01:11:06.936Z,84.40
2018-06-12T01:12:05.937Z,84.40
2018-06-12T01:13:06.801Z,84.30
2018-06-12T01:14:06.910Z,84.30
2018-06-12T01:15:11.261Z,84.30
2018-06-12T01:16:06.020Z,84.20
2018-06-12T01:17:06.154Z,84.40
2018-06-12T01:18:06.310Z,84.40
2018-06-12T01:19:09.072Z,84.50
2018-06-12T01:20:05.831Z,84.50
2018-06-12T01:21:06.569Z,84.40
2018-06-12T01:22:11.721Z,84.50
2018-06-12T01:23:16.533Z,84.40
2018-06-12T01:24:09.032Z,84.80
2018-06-12T01:25:06.082Z,84.80
2018-06-12T01:26:05.943Z,85.00
2018-06-12T01:27:10.882Z,84.90
2018-06-12T01:28:06.156Z,84.90
2018-06-12T01:29:08.443Z,84.80
2018-06-12T01:30:08.628Z,84.70
2018-06-12T01:31:06.727Z,84.70
2018-06-12T01:32:06.842Z,84.60
2018-06-12T01:33:08.514Z,84.50
2018-06-12T01:34:06.382Z,84.50
2018-06-12T01:35:09.582Z,84.90
2018-06-12T01:36:08.467Z,84.80
2018-06-12T01:37:10.967Z,84.80
2018-06-12T01:38:08.862Z,84.50
2018-06-12T01:39:06.377Z,84.50
2018-06-12T01:40:05.639Z,84.80
2018-06-12T01:41:08.993Z,84.80
2018-06-12T01:42:05.725Z,84.80
2018-06-12T01:43:11.318Z,84.70
2018-06-12T01:44:08.284Z,84.60
2018-06-12T01:45:05.991Z,84.60
2018-06-12T01:46:06.025Z,84.60
2018-06-12T01:47:06.498Z,84.70
2018-06-12T01:48:06.609Z,84.80
2018-06-12T01:49:11.174Z,85.10
2018-06-12T01:50:14.039Z,84.80
2018-06-12T01:51:06.228Z,84.80
2018-06-12T01:52:10.949Z,84.80
2018-06-12T01:53:06.324Z,84.70
2018-06-12T01:54:11.106Z,84.70
2018-06-12T01:55:06.734Z,84.70
2018-06-12T01:56:08.360Z,84.80
2018-06-12T01:57:09.234Z,85.20
2018-06-12T01:58:05.805Z,85.20
2018-06-12T01:59:11.552Z,85.00
2018-06-12T02:00:09.383Z,85.00
2018-06-12T02:01:10.898Z,85.00
2018-06-12T02:02:06.351Z,85.00
2018-06-12T02:03:06.604Z,85.00
2018-06-12T02:04:06.499Z,84.90
2018-06-12T02:05:08.401Z,84.90
2018-06-12T02:06:08.819Z,84.90
2018-06-12T02:07:05.764Z,84.90
2018-06-12T02:08:06.101Z,84.90
2018-06-12T02:09:11.228Z,84.90
2018-06-12T02:10:09.060Z,84.80
2018-06-12T02:11:08.132Z,84.70
2018-06-12T02:12:13.308Z,84.70
2018-06-12T02:13:10.862Z,84.80
2018-06-12T02:14:06.349Z,84.70
2018-06-12T02:15:08.957Z,84.80
2018-06-12T02:16:08.810Z,84.80
2018-06-12T02:17:06.802Z,84.80
2018-06-12T02:18:06.897Z,84.80
2018-06-12T02:19:06.136Z,84.80
2018-06-12T02:20:06.129Z,85.30
2018-06-12T02:21:06.374Z,85.50
2018-06-12T02:22:08.911Z,85.20
2018-06-12T02:23:08.966Z,85.10
2018-06-12T02:24:06.441Z,85.10
2018-06-12T02:25:06.289Z,85.30
2018-06-12T02:26:11.042Z,85.20
2018-06-12T02:27:05.890Z,85.10
2018-06-12T02:28:06.015Z,85.10
2018-06-12T02:29:06.519Z,85.10
2018-06-12T02:30:09.189Z,85.20
2018-06-12T02:31:08.128Z,85.10
2018-06-12T02:32:05.744Z,85.10
2018-06-12T02:33:06.156Z,85.20
2018-06-12T02:34:08.802Z,85.10
2018-06-12T02:35:11.403Z,85.20
2018-06-12T02:36:09.399Z,85.10
2018-06-12T02:37:05.921Z,85.10
2018-06-12T02:38:09.237Z,85.10
2018-06-12T02:39:06.178Z,85.10
2018-06-12T02:40:10.944Z,85.10
2018-06-12T02:41:06.406Z,85.00
2018-06-12T02:42:06.587Z,85.00
2018-06-12T02:43:06.763Z,85.10
2018-06-12T02:44:05.809Z,85.10
2018-06-12T02:45:06.017Z,85.10
2018-06-12T02:46:05.850Z,85.10
2018-06-12T02:47:06.123Z,85.10
2018-06-12T02:48:05.730Z,85.20
2018-06-12T02:49:06.108Z,85.30
2018-06-12T02:50:08.509Z,85.20
2018-06-12T02:51:06.079Z,85.20
2018-06-12T02:52:09.177Z,85.20
2018-06-12T02:53:08.353Z,85.20
2018-06-12T02:54:09.630Z,85.20
2018-06-12T02:55:06.293Z,85.10
2018-06-12T02:56:05.597Z,85.10
2018-06-12T02:57:08.431Z,85.10
2018-06-12T02:58:05.983Z,85.10
2018-06-12T02:59:05.537Z,85.00
2018-06-12T03:00:08.469Z,85.20
2018-06-12T03:01:06.225Z,85.20
2018-06-12T03:02:08.373Z,85.10
2018-06-12T03:03:05.892Z,85.10
2018-06-12T03:04:06.107Z,85.20
2018-06-12T03:05:05.960Z,85.10
2018-06-12T03:06:08.405Z,85.00
2018-06-12T03:07:06.316Z,85.10
2018-06-12T03:08:06.022Z,85.20
2018-06-12T03:09:11.360Z,85.40
2018-06-12T03:10:11.382Z,85.30
2018-06-12T03:11:05.627Z,85.40
2018-06-12T03:12:06.077Z,85.40
2018-06-12T03:13:10.732Z,85.10
2018-06-12T03:14:11.442Z,85.10
2018-06-12T03:15:05.971Z,85.10
2018-06-12T03:16:07.116Z,85.10
2018-06-12T03:17:06.727Z,85.10
2018-06-12T03:18:06.298Z,85.20
2018-06-12T03:19:09.667Z,85.20
2018-06-12T03:20:06.395Z,85.20
2018-06-12T03:21:06.269Z,85.10
2018-06-12T03:22:08.505Z,85.20
2018-06-12T03:23:09.355Z,85.20
2018-06-12T03:24:06.104Z,85.30
2018-06-12T03:25:06.225Z,85.30
2018-06-12T03:26:06.306Z,85.10
2018-06-12T03:27:06.045Z,85.00
2018-06-12T03:28:10.939Z,84.80
2018-06-12T03:29:05.571Z,84.80
2018-06-12T03:30:06.275Z,84.90
2018-06-12T03:31:11.014Z,85.40
2018-06-12T03:32:06.303Z,85.30
2018-06-12T03:33:10.901Z,85.50
2018-06-12T03:34:10.655Z,85.30
2018-06-12T03:35:06.339Z,85.20
2018-06-12T03:36:05.993Z,85.00
2018-06-12T03:37:08.293Z,84.90
2018-06-12T03:38:08.989Z,84.80
2018-06-12T03:39:05.735Z,84.80
2018-06-12T03:40:06.092Z,84.20
2018-06-12T03:41:06.624Z,83.70
2018-06-12T03:42:06.639Z,83.30
2018-06-12T03:43:11.378Z,83.40
2018-06-12T03:44:06.226Z,83.40
2018-06-12T03:45:06.325Z,83.30
2018-06-12T03:46:09.414Z,83.40
2018-06-12T03:47:10.331Z,83.40
2018-06-12T03:48:06.259Z,83.40
2018-06-12T03:49:08.331Z,82.90
2018-06-12T03:50:05.879Z,82.90
2018-06-12T03:51:09.017Z,81.70
2018-06-12T03:52:07.987Z,81.60
2018-06-12T03:53:10.464Z,81.70
2018-06-12T03:54:06.437Z,81.70
2018-06-12T03:55:11.132Z,81.80
2018-06-12T03:56:06.188Z,81.80
2018-06-12T03:57:08.413Z,82.30
2018-06-12T03:58:05.892Z,82.40
2018-06-12T03:59:06.818Z,82.80
2018-06-12T04:00:09.172Z,82.90
2018-06-12T04:01:08.757Z,82.90
2018-06-12T04:02:06.508Z,82.90
2018-06-12T04:03:08.539Z,83.10
2018-06-12T04:04:08.601Z,83.10
2018-06-12T04:05:06.645Z,83.10
2018-06-12T04:06:05.609Z,83.10
2018-06-12T04:07:05.534Z,83.00
2018-06-12T04:08:06.354Z,83.40
2018-06-12T04:09:11.708Z,83.40
2018-06-12T04:10:07.082Z,83.40
2018-06-12T04:11:06.201Z,83.30
2018-06-12T04:12:06.095Z,83.30
2018-06-12T04:13:06.507Z,83.40
2018-06-12T04:14:11.290Z,81.60
2018-06-12T04:15:08.721Z,81.80
2018-06-12T04:16:06.767Z,81.80
2018-06-12T04:17:11.558Z,81.30
2018-06-12T04:18:09.246Z,81.40
2018-06-12T04:19:10.541Z,81.60
2018-06-12T04:20:06.317Z,81.60
2018-06-12T04:21:11.050Z,81.10
2018-06-12T04:22:05.488Z,81.10
2018-06-12T04:23:11.171Z,81.20
2018-06-12T04:24:06.254Z,81.20
2018-06-12T04:25:08.936Z,81.10
2018-06-12T04:26:08.722Z,80.90
2018-06-12T04:27:08.740Z,80.70
2018-06-12T04:28:09.570Z,80.50
2018-06-12T04:29:09.003Z,80.50
2018-06-12T04:30:08.111Z,80.70
2018-06-12T04:31:05.894Z,80.70
2018-06-12T04:32:10.527Z,80.40
2018-06-12T04:33:06.484Z,80.40
2018-06-12T04:34:05.670Z,80.50
2018-06-12T04:35:06.420Z,80.70
2018-06-12T04:36:06.226Z,80.90
2018-06-12T04:37:05.980Z,80.90
2018-06-12T04:38:08.114Z,81.10
2018-06-12T04:39:05.907Z,81.10
2018-06-12T04:40:11.535Z,81.30
2018-06-12T04:41:06.470Z,81.30
2018-06-12T04:42:11.028Z,81.40
2018-06-12T04:43:05.642Z,81.00
2018-06-12T04:44:06.877Z,80.90
2018-06-12T04:45:10.936Z,81.10
2018-06-12T04:46:11.460Z,81.00
2018-06-12T04:47:06.092Z,81.00
2018-06-12T04:48:06.143Z,80.90
2018-06-12T04:49:11.003Z,80.70
2018-06-12T04:50:05.505Z,80.70
2018-06-12T04:51:08.617Z,80.90
2018-06-12T04:52:08.754Z,80.70
2018-06-12T04:53:10.071Z,80.40
2018-06-12T04:54:05.815Z,80.40
2018-06-12T04:55:05.995Z,80.50
2018-06-12T04:56:11.476Z,80.80
2018-06-12T04:57:09.240Z,80.50
2018-06-12T04:58:10.759Z,80.50
2018-06-12T04:59:06.530Z,79.80
2018-06-12T05:00:13.223Z,79.60
2018-06-12T05:01:08.314Z,79.40
2018-06-12T05:02:06.179Z,79.50
2018-06-12T05:03:05.860Z,79.60
2018-06-12T05:04:06.434Z,79.80
2018-06-12T05:05:09.668Z,79.70
2018-06-12T05:06:08.225Z,79.40
2018-06-12T05:07:05.864Z,79.40
2018-06-12T05:08:06.495Z,79.40
2018-06-12T05:09:06.134Z,79.40
2018-06-12T05:10:05.862Z,79.20
2018-06-12T05:11:06.157Z,79.00
2018-06-12T05:12:11.213Z,79.10
2018-06-12T05:13:08.368Z,79.00
2018-06-12T05:14:10.795Z,79.00
2018-06-12T05:15:08.309Z,79.00
2018-06-12T05:16:05.883Z,79.00
2018-06-12T05:17:06.172Z,79.20
2018-06-12T05:18:06.151Z,79.50
2018-06-12T05:19:09.215Z,79.70
2018-06-12T05:20:08.490Z,79.40
2018-06-12T05:21:06.450Z,79.40
2018-06-12T05:22:09.788Z,78.90
2018-06-12T05:23:05.523Z,78.90
2018-06-12T05:24:08.238Z,79.10
2018-06-12T05:25:05.745Z,79.10
2018-06-12T05:26:10.814Z,78.60
2018-06-12T05:27:06.330Z,78.50
2018-06-12T05:28:06.493Z,78.50
2018-06-12T05:29:11.053Z,78.60
2018-06-12T05:30:06.673Z,78.40
2018-06-12T05:31:07.474Z,78.40
2018-06-12T05:32:05.921Z,78.20
2018-06-12T05:33:10.893Z,78.20
2018-06-12T05:34:11.334Z,78.50
2018-06-12T05:35:06.009Z,78.50
2018-06-12T05:36:08.655Z,78.90
2018-06-12T05:37:11.241Z,78.80
2018-06-12T05:38:05.652Z,78.80
2018-06-12T05:39:06.412Z,78.90
2018-06-12T05:40:08.563Z,77.00
2018-06-12T05:41:06.027Z,77.00
2018-06-12T05:42:08.247Z,76.90
2018-06-12T05:43:05.700Z,76.90
2018-06-12T05:44:11.104Z,76.50
2018-06-12T05:45:09.750Z,76.90
2018-06-12T05:46:06.534Z,76.80
2018-06-12T05:47:05.725Z,77.40
2018-06-12T05:48:06.383Z,77.80
2018-06-12T05:49:09.571Z,78.10
2018-06-12T05:50:05.898Z,78.10
2018-06-12T05:51:09.052Z,78.10
2018-06-12T05:52:05.589Z,78.00
2018-06-12T05:53:06.574Z,77.80
2018-06-12T05:54:06.507Z,77.30
2018-06-12T05:55:08.891Z,77.20
2018-06-12T05:56:06.376Z,77.30
2018-06-12T05:57:05.810Z,76.80
2018-06-12T05:58:08.975Z,77.50
2018-06-12T05:59:05.535Z,77.50
2018-06-12T06:00:06.068Z,77.20
2018-06-12T06:01:06.159Z,77.10
2018-06-12T06:02:06.264Z,76.90
2018-06-12T06:03:08.504Z,76.70
2018-06-12T06:04:06.379Z,76.70
2018-06-12T06:05:05.707Z,76.30
2018-06-12T06:06:08.931Z,76.20
2018-06-12T06:07:06.555Z,76.20
2018-06-12T06:08:05.694Z,76.40
2018-06-12T06:09:06.098Z,75.90
2018-06-12T06:10:08.680Z,75.30
2018-06-12T06:11:06.179Z,75.30
2018-06-12T06:12:06.182Z,75.70
2018-06-12T06:13:05.734Z,75.70
2018-06-12T06:14:06.502Z,75.90
2018-06-12T06:15:06.667Z,75.60
2018-06-12T06:16:08.609Z,76.00
2018-06-12T06:17:10.140Z,76.20
2018-06-12T06:18:10.776Z,76.30
2018-06-12T06:19:08.767Z,76.60
2018-06-12T06:20:10.019Z,76.30
2018-06-12T06:21:13.304Z,76.20
2018-06-12T06:22:06.313Z,76.20
2018-06-12T06:23:05.544Z,76.40
2018-06-12T06:24:07.480Z,76.70
2018-06-12T06:25:06.171Z,76.90
2018-06-12T06:26:06.349Z,76.20
2018-06-12T06:27:06.075Z,76.00
2018-06-12T06:28:06.558Z,76.00
2018-06-12T06:29:06.151Z,76.00
2018-06-12T06:30:10.914Z,75.90
2018-06-12T06:31:06.404Z,75.90
2018-06-12T06:32:06.395Z,75.70
2018-06-12T06:33:09.626Z,75.50
2018-06-12T06:34:08.470Z,75.70
2018-06-12T06:35:06.490Z,75.70
2018-06-12T06:36:10.140Z,75.50
2018-06-12T06:37:05.662Z,75.50
2018-06-12T06:38:06.411Z,75.60
2018-06-12T06:39:07.245Z,75.90
2018-06-12T06:40:05.990Z,75.50
2018-06-12T06:41:09.100Z,75.60
2018-06-12T06:42:05.581Z,75.60
2018-06-12T06:43:08.592Z,75.80
2018-06-12T06:44:06.335Z,75.90
2018-06-12T06:45:10.636Z,76.00
2018-06-12T06:46:09.147Z,76.40
2018-06-12T06:47:06.221Z,76.40
2018-06-12T06:48:11.063Z,76.50
2018-06-12T06:49:06.068Z,76.80
2018-06-12T06:50:05.698Z,76.80
2018-06-12T06:51:11.533Z,76.80
2018-06-12T06:52:08.563Z,76.80
2018-06-12T06:53:06.109Z,76.80
2018-06-12T06:54:08.269Z,77.00
2018-06-12T06:55:05.897Z,77.00
2018-06-12T06:56:08.228Z,76.00
2018-06-12T06:57:06.209Z,76.00
2018-06-12T06:58:08.345Z,75.60
2018-06-12T06:59:06.520Z,75.70
2018-06-12T07:00:08.894Z,76.00
2018-06-12T07:01:11.531Z,76.00
2018-06-12T07:02:13.061Z,76.20
2018-06-12T07:03:05.839Z,76.20
2018-06-12T07:04:06.620Z,63.50
2018-06-12T07:05:06.169Z,76.10
2018-06-12T07:06:11.114Z,75.50
2018-06-12T07:07:05.869Z,75.50
2018-06-12T07:08:14.022Z,75.30
2018-06-12T07:09:08.201Z,75.60
2018-06-12T07:10:08.319Z,75.90
2018-06-12T07:11:06.245Z,75.90
2018-06-12T07:12:08.586Z,75.70
2018-06-12T07:13:13.627Z,75.70
2018-06-12T07:14:06.149Z,75.70
2018-06-12T07:15:10.978Z,75.80
2018-06-12T07:16:15.424Z,74.40
2018-06-12T07:17:06.373Z,74.40
2018-06-12T07:18:11.170Z,74.40
2018-06-12T07:19:08.179Z,74.60
2018-06-12T07:20:05.822Z,74.60
2018-06-12T07:21:10.577Z,74.50
2018-06-12T07:22:10.668Z,73.60
2018-06-12T07:23:11.224Z,73.10
2018-06-12T07:24:05.913Z,73.10
2018-06-12T07:25:08.137Z,72.90
2018-06-12T07:26:09.392Z,73.20
2018-06-12T07:27:06.989Z,73.20
2018-06-12T07:28:08.542Z,72.70
2018-06-12T07:29:05.642Z,72.70
2018-06-12T07:30:10.831Z,72.90
2018-06-12T07:31:11.402Z,72.90
2018-06-12T07:32:09.426Z,73.30
2018-06-12T07:33:10.956Z,73.20
2018-06-12T07:34:07.089Z,73.20
2018-06-12T07:35:05.949Z,72.90
2018-06-12T07:36:08.539Z,72.10
2018-06-12T07:37:06.611Z,72.20
2018-06-12T07:38:08.757Z,72.10
2018-06-12T07:39:08.303Z,72.50
2018-06-12T07:40:09.187Z,72.60
2018-06-12T07:41:05.720Z,72.60
2018-06-12T07:42:05.628Z,72.50
2018-06-12T07:43:10.964Z,72.50
2018-06-12T07:44:05.750Z,72.30
2018-06-12T07:45:06.297Z,72.10
2018-06-12T07:46:05.766Z,72.50
2018-06-12T07:47:11.076Z,72.70
2018-06-12T07:48:05.880Z,73.00
2018-06-12T07:49:05.855Z,73.10
2018-06-12T07:50:05.641Z,73.60
2018-06-12T07:51:08.810Z,74.10
2018-06-12T07:52:13.880Z,73.40
2018-06-12T07:53:07.094Z,73.40
2018-06-12T07:54:06.292Z,73.30
2018-06-12T07:55:08.168Z,73.90
2018-06-12T07:56:05.676Z,73.90
2018-06-12T07:57:11.447Z,74.10
2018-06-12T07:58:05.644Z,74.00
2018-06-12T07:59:08.421Z,74.10
2018-06-12T08:00:05.912Z,74.10
2018-06-12T08:01:06.225Z,74.20
2018-06-12T08:02:06.087Z,74.60
2018-06-12T08:03:06.000Z,74.50
2018-06-12T08:04:06.014Z,74.30
2018-06-12T08:05:08.371Z,73.80
2018-06-12T08:06:05.977Z,73.80
2018-06-12T08:07:07.172Z,73.50
2018-06-12T08:08:08.308Z,73.50
2018-06-12T08:09:11.427Z,73.50
2018-06-12T08:10:08.612Z,73.40
2018-06-12T08:11:11.140Z,73.20
2018-06-12T08:12:06.338Z,73.20
2018-06-12T08:13:06.200Z,73.30
2018-06-12T08:14:06.075Z,73.00
2018-06-12T08:15:08.775Z,72.40
2018-06-12T08:16:06.566Z,72.40
2018-06-12T08:17:06.416Z,72.60
2018-06-12T08:18:06.032Z,72.60
2018-06-12T08:19:06.214Z,72.70
2018-06-12T08:20:08.608Z,73.20
2018-06-12T08:21:06.423Z,73.20
2018-06-12T08:22:05.499Z,73.10
2018-06-12T08:23:06.053Z,73.40
2018-06-12T08:24:05.674Z,73.70
2018-06-12T08:25:05.581Z,73.30
2018-06-12T08:26:05.808Z,73.40
2018-06-12T08:27:08.377Z,73.10
2018-06-12T08:28:06.335Z,73.10
2018-06-12T08:29:09.236Z,73.10
2018-06-12T08:30:06.260Z,73.10
2018-06-12T08:31:06.277Z,73.20
2018-06-12T08:32:06.475Z,73.40
2018-06-12T08:33:06.399Z,73.80
2018-06-12T08:34:08.517Z,73.20
2018-06-12T08:35:06.577Z,73.20
2018-06-12T08:36:08.927Z,72.80
2018-06-12T08:37:06.355Z,72.80
2018-06-12T08:38:09.113Z,72.40
2018-06-12T08:39:13.343Z,72.00
2018-06-12T08:40:08.489Z,72.20
2018-06-12T08:41:06.042Z,72.10
2018-06-12T08:42:06.683Z,72.10
2018-06-12T08:43:08.285Z,71.80
2018-06-12T08:44:06.457Z,71.80
2018-06-12T08:45:06.461Z,71.90
2018-06-12T08:46:06.218Z,72.00
2018-06-12T08:47:07.068Z,71.90
2018-06-12T08:48:06.634Z,72.00
2018-06-12T08:49:06.232Z,72.20
2018-06-12T08:50:05.996Z,72.20
2018-06-12T08:51:05.852Z,72.30
2018-06-12T08:52:05.696Z,72.40
2018-06-12T08:53:06.682Z,72.40
2018-06-12T08:54:06.340Z,72.50
2018-06-12T08:55:05.985Z,72.50
2018-06-12T08:56:08.911Z,72.30
2018-06-12T08:57:07.529Z,72.10
2018-06-12T08:58:11.091Z,71.50
2018-06-12T08:59:06.235Z,71.40
2018-06-12T09:00:06.198Z,70.60
2018-06-12T09:01:06.220Z,70.40
2018-06-12T09:02:06.039Z,70.80
2018-06-12T09:03:10.656Z,70.60
2018-06-12T09:04:08.705Z,71.10
2018-06-12T09:05:06.712Z,71.10
2018-06-12T09:06:10.779Z,71.60
2018-06-12T09:07:06.206Z,71.60
2018-06-12T09:08:09.738Z,71.20
2018-06-12T09:09:06.280Z,71.20
2018-06-12T09:10:06.253Z,71.40
2018-06-12T09:11:05.845Z,71.60
2018-06-12T09:12:10.613Z,71.90
2018-06-12T09:13:05.987Z,72.00
2018-06-12T09:14:08.246Z,72.30
2018-06-12T09:15:05.767Z,72.30
2018-06-12T09:16:08.852Z,72.50
2018-06-12T09:17:06.477Z,72.60
2018-06-12T09:18:05.591Z,72.50
2018-06-12T09:19:08.719Z,72.70
2018-06-12T09:20:06.695Z,72.70
2018-06-12T09:21:16.316Z,72.90
2018-06-12T09:22:10.522Z,73.00
2018-06-12T09:23:09.511Z,73.00
2018-06-12T09:24:09.628Z,73.10
2018-06-12T09:25:11.720Z,73.20
2018-06-12T09:26:06.426Z,73.20
2018-06-12T09:27:06.408Z,73.30
2018-06-12T09:28:09.047Z,73.40
2018-06-12T09:29:10.663Z,73.40
2018-06-12T09:30:08.891Z,73.30
2018-06-12T09:31:11.571Z,73.50
2018-06-12T09:32:08.542Z,73.70
2018-06-12T09:33:05.994Z,73.60
2018-06-12T09:34:06.087Z,73.70
2018-06-12T09:35:09.532Z,73.20
2018-06-12T09:36:06.549Z,73.10
2018-06-12T09:37:08.869Z,72.80
2018-06-12T09:38:08.369Z,73.10
2018-06-12T09:39:05.862Z,73.10
2018-06-12T09:40:05.719Z,73.10
2018-06-12T09:41:08.789Z,72.60
2018-06-12T09:42:06.157Z,72.60
2018-06-12T09:43:05.826Z,72.40
2018-06-12T09:44:06.162Z,71.30
2018-06-12T09:45:08.412Z,70.20
2018-06-12T09:46:13.567Z,70.40
2018-06-12T09:47:08.701Z,70.00
2018-06-12T09:48:09.683Z,70.00
2018-06-12T09:49:09.398Z,69.30
2018-06-12T09:50:10.158Z,69.70
2018-06-12T09:51:05.638Z,69.70
2018-06-12T09:52:05.941Z,70.20
2018-06-12T09:53:08.873Z,70.50
2018-06-12T09:54:06.319Z,70.50
2018-06-12T09:55:11.769Z,70.00
2018-06-12T09:56:12.039Z,69.80
2018-06-12T09:57:08.829Z,70.10
2018-06-12T09:58:06.938Z,70.10
2018-06-12T09:59:05.781Z,70.10
2018-06-12T10:00:09.573Z,69.20
2018-06-12T10:01:11.632Z,69.70
2018-06-12T10:02:06.176Z,69.70
2018-06-12T10:03:06.533Z,70.20
2018-06-12T10:04:06.762Z,70.10
2018-06-12T10:05:06.449Z,70.10
2018-06-12T10:06:06.234Z,69.20
2018-06-12T10:07:11.264Z,69.50
2018-06-12T10:08:05.747Z,69.60
2018-06-12T10:09:06.638Z,69.80
2018-06-12T10:10:08.742Z,69.30
2018-06-12T10:11:09.315Z,68.00
2018-06-12T10:12:06.058Z,67.90
2018-06-12T10:13:06.500Z,67.80
2018-06-12T10:14:05.597Z,67.60
2018-06-12T10:15:08.802Z,67.30
2018-06-12T10:16:11.391Z,67.40
2018-06-12T10:17:08.383Z,67.70
2018-06-12T10:18:08.401Z,68.00
2018-06-12T10:19:06.048Z,67.90
2018-06-12T10:20:08.440Z,67.70
2018-06-12T10:21:08.592Z,67.90
2018-06-12T10:22:06.321Z,67.90
2018-06-12T10:23:05.552Z,68.00
2018-06-12T10:24:08.768Z,67.10
2018-06-12T10:25:08.844Z,67.20
2018-06-12T10:26:11.538Z,67.20
2018-06-12T10:27:09.776Z,66.80
2018-06-12T10:28:05.994Z,66.80
2018-06-12T10:29:06.078Z,66.70
2018-06-12T10:30:06.283Z,67.40
2018-06-12T10:31:06.220Z,67.00
2018-06-12T10:32:11.245Z,66.40
2018-06-12T10:33:05.535Z,66.50
2018-06-12T10:34:11.320Z,66.20
2018-06-12T10:35:06.308Z,66.40
2018-06-12T10:36:06.366Z,66.70
2018-06-12T10:37:06.205Z,67.00
2018-06-12T10:38:06.442Z,66.80
2018-06-12T10:39:06.142Z,66.50
2018-06-12T10:40:11.166Z,66.00
2018-06-12T10:41:06.014Z,65.20
2018-06-12T10:42:08.822Z,66.00
2018-06-12T10:43:06.363Z,66.00
2018-06-12T10:44:06.045Z,64.40
2018-06-12T10:45:06.407Z,65.00
2018-06-12T10:46:11.054Z,65.30
2018-06-12T10:47:06.269Z,65.30
2018-06-12T10:48:06.315Z,65.20
2018-06-12T10:49:06.475Z,65.50
2018-06-12T10:50:08.173Z,65.70
2018-06-12T10:51:08.963Z,66.10
2018-06-12T10:52:05.827Z,66.10
2018-06-12T10:53:06.742Z,65.50
2018-06-12T10:54:06.521Z,65.00
2018-06-12T10:55:16.414Z,64.90
2018-06-12T10:56:10.934Z,63.40
2018-06-12T10:57:06.500Z,63.40
2018-06-12T10:58:08.535Z,64.40
2018-06-12T10:59:06.516Z,64.40
2018-06-12T11:00:06.157Z,62.90
2018-06-12T11:01:10.964Z,65.10
2018-06-12T11:02:06.171Z,65.10
2018-06-12T11:03:06.655Z,64.90
2018-06-12T11:04:08.579Z,63.80
2018-06-12T11:05:09.488Z,62.10
2018-06-12T11:06:11.160Z,62.50
2018-06-12T11:07:08.377Z,62.20
2018-06-12T11:08:06.321Z,62.20
2018-06-12T11:09:11.092Z,60.90
2018-06-12T11:10:08.251Z,58.10
2018-06-12T11:11:05.725Z,58.00
2018-06-12T11:12:05.670Z,57.80
2018-06-12T11:13:08.156Z,57.20
2018-06-12T11:14:06.687Z,57.20
2018-06-12T11:15:08.847Z,56.80
2018-06-12T11:16:06.362Z,56.80
2018-06-12T11:17:06.550Z,56.90
2018-06-12T11:18:11.226Z,56.40
2018-06-12T11:19:10.926Z,55.70
2018-06-12T11:20:08.608Z,55.80
2018-06-12T11:21:06.103Z,55.80
2018-06-12T11:22:06.557Z,55.90
2018-06-12T11:23:05.732Z,55.20
2018-06-12T11:24:11.455Z,54.50
2018-06-12T11:25:06.002Z,54.60
2018-06-12T11:26:05.763Z,55.30
2018-06-12T11:27:11.703Z,54.70
2018-06-12T11:28:08.748Z,54.80
2018-06-12T11:29:11.185Z,54.80
2018-06-12T11:30:06.528Z,54.80
2018-06-12T11:31:06.009Z,54.70
2018-06-12T11:32:06.133Z,54.60
2018-06-12T11:33:06.436Z,54.50
2018-06-12T11:34:06.048Z,53.60
2018-06-12T11:35:07.102Z,53.70
2018-06-12T11:36:09.074Z,52.80
2018-06-12T11:37:08.147Z,52.40
2018-06-12T11:38:05.577Z,52.20
2018-06-12T11:39:08.769Z,51.80
2018-06-12T11:40:11.557Z,50.20
2018-06-12T11:41:08.693Z,50.90
2018-06-12T11:42:11.203Z,51.20
2018-06-12T11:43:06.262Z,51.20
2018-06-12T11:44:12.492Z,49.20
2018-06-12T11:45:06.320Z,49.10
2018-06-12T11:46:06.487Z,49.00
2018-06-12T11:47:08.675Z,50.60
2018-06-12T11:48:11.132Z,50.70
2018-06-12T11:49:06.705Z,50.90
2018-06-12T11:50:09.265Z,49.40
2018-06-12T11:51:10.080Z,49.30
2018-06-12T11:52:05.733Z,49.30
2018-06-12T11:53:06.043Z,48.80
2018-06-12T11:54:08.309Z,47.60
2018-06-12T11:55:05.987Z,47.70
2018-06-12T11:56:06.373Z,47.80
2018-06-12T11:57:05.571Z,48.20
2018-06-12T11:58:08.875Z,47.10
2018-06-12T11:59:06.804Z,47.20
2018-06-12T12:00:09.240Z,47.00
2018-06-12T12:01:08.695Z,47.20
2018-06-12T12:02:09.779Z,45.80
2018-06-12T12:03:08.914Z,44.40
2018-06-12T12:04:11.410Z,44.20
2018-06-12T12:05:06.572Z,44.20
2018-06-12T12:06:09.229Z,44.90
2018-06-12T12:07:06.920Z,45.00
2018-06-12T12:08:08.922Z,46.60
2018-06-12T12:09:06.520Z,46.60
2018-06-12T12:10:06.331Z,46.70
2018-06-12T12:11:10.976Z,46.80
2018-06-12T12:12:06.077Z,46.90
2018-06-12T12:13:06.060Z,46.40
2018-06-12T12:14:08.958Z,45.30
2018-06-12T12:15:05.586Z,45.30
2018-06-12T12:16:06.759Z,45.50
2018-06-12T12:17:05.959Z,45.70
2018-06-12T12:18:08.514Z,46.50
2018-06-12T12:19:08.337Z,46.60
2018-06-12T12:20:05.977Z,46.60
2018-06-12T12:21:08.140Z,47.40
2018-06-12T12:22:06.152Z,47.50
2018-06-12T12:23:05.935Z,47.50
2018-06-12T12:24:05.936Z,47.30
2018-06-12T12:25:10.972Z,46.00
2018-06-12T12:26:05.998Z,46.10
2018-06-12T12:27:06.702Z,45.20
2018-06-12T12:28:06.613Z,45.20
2018-06-12T12:29:05.469Z,44.80
2018-06-12T12:30:06.081Z,44.80
2018-06-12T12:31:06.426Z,44.10
2018-06-12T12:32:08.549Z,44.30
2018-06-12T12:33:11.178Z,43.70
2018-06-12T12:34:08.705Z,43.50
2018-06-12T12:35:06.555Z,43.40
2018-06-12T12:36:06.432Z,43.70
2018-06-12T12:37:05.530Z,43.70
2018-06-12T12:38:08.938Z,44.20
2018-06-12T12:39:08.927Z,44.40
2018-06-12T12:40:11.146Z,44.50
2018-06-12T12:41:06.046Z,45.20
2018-06-12T12:42:08.577Z,45.70
2018-06-12T12:43:11.105Z,45.70
2018-06-12T12:44:08.825Z,45.70
2018-06-12T12:45:06.540Z,45.70
2018-06-12T12:46:06.066Z,45.30
2018-06-12T12:47:08.885Z,45.30
2018-06-12T12:48:06.872Z,45.30
2018-06-12T12:49:06.416Z,45.40
2018-06-12T12:50:05.946Z,44.30
2018-06-12T12:51:11.043Z,44.00
2018-06-12T12:52:08.711Z,43.20